createdAt,value
2022-10-20T00:00:45.646Z,2.60
2022-10-20T00:03:12.325Z,2.53
2022-10-20T00:05:39.065Z,2.70
2022-10-20T00:08:05.798Z,2.10
2022-10-20T00:10:32.476Z,2.47
2022-10-20T00:12:59.198Z,3.73
2022-10-20T00:15:25.924Z,1.93
2022-10-20T00:17:52.658Z,1.90
2022-10-20T00:20:19.299Z,2.43
2022-10-20T00:22:46.043Z,2.17
2022-10-20T00:25:12.686Z,3.33
2022-10-20T00:27:39.376Z,2.00
2022-10-20T00:30:06.427Z,2.10
2022-10-20T00:32:33.488Z,1.87
2022-10-20T00:35:00.378Z,1.60
2022-10-20T00:37:27.083Z,1.70
2022-10-20T00:39:53.754Z,2.00
2022-10-20T00:42:20.496Z,1.23
2022-10-20T00:44:57.836Z,2.30
2022-10-20T00:47:37.515Z,2.10
2022-10-20T00:50:09.490Z,1.90
2022-10-20T00:52:37.614Z,1.83
2022-10-20T00:55:05.455Z,2.40
2022-10-20T00:57:33.203Z,1.80
2022-10-20T01:00:00.188Z,1.80
2022-10-20T01:02:27.245Z,2.30
2022-10-20T01:04:53.956Z,2.10
2022-10-20T01:07:20.674Z,1.93
2022-10-20T01:09:47.446Z,2.10
2022-10-20T01:12:35.614Z,1.50
2022-10-20T01:15:11.457Z,1.67
2022-10-20T01:17:44.296Z,2.23
2022-10-20T01:20:20.056Z,1.70
2022-10-20T01:22:49.544Z,2.33
2022-10-20T01:25:31.226Z,2.90
2022-10-20T01:28:43.268Z,2.60
2022-10-20T01:31:42.518Z,2.40
2022-10-20T01:34:14.836Z,1.50
2022-10-20T01:36:55.793Z,2.43
2022-10-20T01:39:41.086Z,1.80
2022-10-20T01:42:11.457Z,1.63
2022-10-20T01:44:39.126Z,2.63
2022-10-20T01:47:06.758Z,2.03
2022-10-20T01:49:33.504Z,2.20
2022-10-20T01:52:00.466Z,2.97
2022-10-20T01:54:29.326Z,2.87
2022-10-20T01:57:02.264Z,3.00
2022-10-20T01:59:46.586Z,2.80
2022-10-20T02:02:35.096Z,3.43
2022-10-20T02:05:30.016Z,3.70
2022-10-20T02:08:04.625Z,3.83
2022-10-20T02:10:38.996Z,3.17
2022-10-20T02:13:07.405Z,2.97
2022-10-20T02:15:37.406Z,2.53
2022-10-20T02:18:07.205Z,3.50
2022-10-20T02:20:34.058Z,3.50
2022-10-20T02:23:01.156Z,2.90
2022-10-20T02:25:28.505Z,2.27
2022-10-20T02:27:56.223Z,3.10
2022-10-20T02:30:23.156Z,2.40
2022-10-20T02:32:53.013Z,2.37
2022-10-20T02:35:27.522Z,3.10
2022-10-20T02:37:54.263Z,1.93
2022-10-20T02:40:22.383Z,2.17
2022-10-20T02:42:49.274Z,2.17
2022-10-20T02:45:16.254Z,2.30
2022-10-20T02:47:43.232Z,3.10
2022-10-20T02:50:10.295Z,3.07
2022-10-20T02:52:38.092Z,2.63
2022-10-20T02:55:05.876Z,2.33
2022-10-20T02:57:33.026Z,2.13
2022-10-20T02:59:59.964Z,1.87
2022-10-20T03:02:26.656Z,3.00
2022-10-20T03:04:53.366Z,2.53
2022-10-20T03:07:20.047Z,2.00
2022-10-20T03:09:46.825Z,2.70
2022-10-20T03:12:13.556Z,2.27
2022-10-20T03:14:42.256Z,2.80
2022-10-20T03:17:09.544Z,2.60
2022-10-20T03:19:36.291Z,2.80
2022-10-20T03:22:02.934Z,2.70
2022-10-20T03:24:29.623Z,2.73
2022-10-20T03:26:56.304Z,2.70
2022-10-20T03:29:23.006Z,3.33
2022-10-20T03:34:21.373Z,3.30
2022-10-20T03:36:48.077Z,2.40
2022-10-20T03:39:14.764Z,3.40
2022-10-20T03:41:41.447Z,3.00
2022-10-20T03:44:09.552Z,2.57
2022-10-20T03:46:36.196Z,2.80
2022-10-20T03:49:03.664Z,3.87
2022-10-20T03:51:30.395Z,2.80
2022-10-20T03:53:57.056Z,2.50
2022-10-20T03:56:23.853Z,2.47
2022-10-20T03:58:50.640Z,2.67
2022-10-20T04:01:20.184Z,2.70
2022-10-20T04:03:47.254Z,4.30
2022-10-20T04:06:14.736Z,3.07
2022-10-20T04:08:41.767Z,3.20
2022-10-20T04:11:08.696Z,3.10
2022-10-20T04:13:35.507Z,2.83
2022-10-20T04:16:02.206Z,2.57
2022-10-20T04:18:28.949Z,3.40
2022-10-20T04:20:55.533Z,2.70
2022-10-20T04:23:22.160Z,2.33
2022-10-20T04:25:48.828Z,2.50
2022-10-20T04:28:17.374Z,3.07
2022-10-20T04:30:44.526Z,2.80
2022-10-20T04:33:11.617Z,3.00
2022-10-20T04:35:38.561Z,4.10
2022-10-20T04:38:05.578Z,3.20
2022-10-20T04:40:32.342Z,2.53
2022-10-20T04:43:02.194Z,2.33
2022-10-20T04:45:28.895Z,3.10
2022-10-20T04:47:55.658Z,2.50
2022-10-20T04:50:22.404Z,2.70
2022-10-20T04:52:48.971Z,3.77
2022-10-20T04:55:15.559Z,2.43
2022-10-20T04:57:42.110Z,3.47
2022-10-20T05:00:09.403Z,3.43
2022-10-20T05:02:36.109Z,2.93
2022-10-20T05:05:02.856Z,2.50
2022-10-20T05:07:30.626Z,3.90
2022-10-20T05:09:57.353Z,3.73
2022-10-20T05:12:24.050Z,5.30
2022-10-20T05:14:50.643Z,5.70
2022-10-20T05:17:17.369Z,4.83
2022-10-20T05:19:44.152Z,5.00
2022-10-20T05:22:11.120Z,4.40
2022-10-20T05:24:37.949Z,4.70
2022-10-20T05:27:04.634Z,3.37
2022-10-20T05:29:31.461Z,3.67
2022-10-20T05:31:58.194Z,5.50
2022-10-20T05:34:25.275Z,5.50
2022-10-20T05:36:53.942Z,5.30
2022-10-20T05:39:20.821Z,4.00
2022-10-20T05:41:47.533Z,5.13
2022-10-20T05:44:14.264Z,4.67
2022-10-20T05:46:43.770Z,4.17
2022-10-20T05:49:14.254Z,3.80
2022-10-20T05:51:41.376Z,4.93
2022-10-20T05:54:11.335Z,4.40
2022-10-20T05:56:38.193Z,4.20
2022-10-20T05:59:04.951Z,4.87
2022-10-20T06:01:48.438Z,4.07
2022-10-20T06:04:23.716Z,4.03
2022-10-20T06:06:52.460Z,5.03
2022-10-20T06:09:19.638Z,4.20
2022-10-20T06:11:46.462Z,4.20
2022-10-20T06:14:13.236Z,4.80
2022-10-20T06:16:40.092Z,4.10
2022-10-20T06:19:07.315Z,4.37
2022-10-20T06:21:35.326Z,4.63
2022-10-20T06:24:04.790Z,5.03
2022-10-20T06:26:33.469Z,4.00
2022-10-20T06:29:04.398Z,4.00
2022-10-20T06:31:39.078Z,5.20
2022-10-20T06:34:12.823Z,4.10
2022-10-20T06:36:40.667Z,3.57
2022-10-20T06:39:09.152Z,5.10
2022-10-20T06:41:35.952Z,4.10
2022-10-20T06:44:03.001Z,4.83
2022-10-20T06:46:31.791Z,4.20
2022-10-20T06:49:03.868Z,5.00
2022-10-20T06:51:31.254Z,5.63
2022-10-20T06:53:59.433Z,7.60
2022-10-20T06:56:29.006Z,6.77
2022-10-20T06:58:56.893Z,7.90
2022-10-20T07:01:25.734Z,8.63
2022-10-20T07:03:54.731Z,8.00
2022-10-20T07:06:26.813Z,7.20
2022-10-20T07:08:54.235Z,6.97
2022-10-20T07:11:22.832Z,5.80
2022-10-20T07:13:49.636Z,5.93
2022-10-20T07:16:21.133Z,5.80
2022-10-20T07:18:48.454Z,5.00
2022-10-20T07:21:17.975Z,6.40
2022-10-20T07:23:44.813Z,6.40
2022-10-20T07:26:20.121Z,5.93
2022-10-20T07:28:54.802Z,6.10
2022-10-20T07:31:49.019Z,10.20
2022-10-20T07:34:26.710Z,9.20
2022-10-20T07:36:54.297Z,6.30
2022-10-20T07:39:21.451Z,6.30
2022-10-20T07:41:48.828Z,5.00
2022-10-20T07:44:16.157Z,5.30
2022-10-20T07:46:42.960Z,6.03
2022-10-20T07:51:56.453Z,8.87
2022-10-20T07:54:23.241Z,6.87
2022-10-20T07:56:49.980Z,8.43
2022-10-20T07:59:17.092Z,6.80
2022-10-20T08:01:44.381Z,7.87
2022-10-20T08:04:11.383Z,7.00
2022-10-20T08:06:39.210Z,7.13
2022-10-20T08:09:06.456Z,6.47
2022-10-20T08:11:33.331Z,7.70
2022-10-20T08:14:00.111Z,6.40
2022-10-20T08:16:28.893Z,6.20
2022-10-20T08:21:45.918Z,7.50
2022-10-20T08:24:12.672Z,6.90
2022-10-20T08:26:39.381Z,6.73
2022-10-20T08:29:06.662Z,6.90
2022-10-20T08:31:33.401Z,8.07
2022-10-20T08:34:00.191Z,7.80
2022-10-20T08:36:28.373Z,8.90
2022-10-20T08:38:56.436Z,7.50
2022-10-20T08:41:27.048Z,6.07
2022-10-20T08:43:56.700Z,5.90
2022-10-20T08:46:30.096Z,6.57
2022-10-20T08:48:57.655Z,6.43
2022-10-20T08:51:33.182Z,7.07
2022-10-20T08:54:01.713Z,6.40
2022-10-20T08:56:30.182Z,6.90
2022-10-20T08:58:57.291Z,8.27
2022-10-20T09:01:31.031Z,7.93
2022-10-20T09:04:00.759Z,8.23
2022-10-20T09:06:27.636Z,8.23
2022-10-20T09:08:55.434Z,7.70
2022-10-20T09:11:31.639Z,7.60
2022-10-20T09:13:58.364Z,7.00
2022-10-20T09:16:58.791Z,8.10
2022-10-20T09:19:25.215Z,7.13
2022-10-20T09:21:54.025Z,7.50
2022-10-20T09:24:22.748Z,7.67
2022-10-20T09:26:59.607Z,6.90
2022-10-20T09:29:37.786Z,6.27
2022-10-20T09:32:44.938Z,6.20
2022-10-20T09:35:33.361Z,6.13
2022-10-20T09:38:29.677Z,5.70
2022-10-20T09:41:14.062Z,5.93
2022-10-20T09:44:01.969Z,7.17
2022-10-20T09:46:30.693Z,6.60
2022-10-20T09:48:57.671Z,9.20
2022-10-20T09:51:27.264Z,7.63
2022-10-20T09:54:18.762Z,5.87
2022-10-20T09:56:47.015Z,6.70
2022-10-20T09:59:23.064Z,6.50
2022-10-20T10:02:15.713Z,8.20
2022-10-20T10:04:44.849Z,7.57
2022-10-20T10:07:26.795Z,5.80
2022-10-20T10:09:56.170Z,5.83
2022-10-20T10:12:24.141Z,5.57
2022-10-20T10:14:59.644Z,6.97
2022-10-20T10:17:31.564Z,6.37
2022-10-20T10:19:58.625Z,5.13
2022-10-20T10:22:25.492Z,6.20
2022-10-20T10:24:55.114Z,5.10
2022-10-20T10:27:31.624Z,5.87
2022-10-20T10:30:17.350Z,4.67
2022-10-20T10:32:44.447Z,5.33
2022-10-20T10:35:20.287Z,5.20
2022-10-20T10:37:47.990Z,5.50
2022-10-20T10:40:15.330Z,4.80
2022-10-20T10:43:08.826Z,4.97
2022-10-20T10:45:51.836Z,4.60
2022-10-20T10:48:56.856Z,5.70
2022-10-20T10:51:45.337Z,4.80
2022-10-20T10:54:25.886Z,6.20
2022-10-20T10:56:57.904Z,5.20
2022-10-20T10:59:35.377Z,5.90
2022-10-20T11:02:40.307Z,4.97
2022-10-20T11:05:24.640Z,5.30
2022-10-20T11:08:04.444Z,4.60
2022-10-20T11:10:53.817Z,4.03
2022-10-20T11:13:43.367Z,5.60
2022-10-20T11:16:15.707Z,5.27
2022-10-20T11:18:54.427Z,5.50
2022-10-20T11:21:44.748Z,5.40
2022-10-20T11:24:35.909Z,5.37
2022-10-20T11:27:25.899Z,5.57
2022-10-20T11:30:04.987Z,4.23
2022-10-20T11:32:38.476Z,5.73
2022-10-20T11:35:36.137Z,5.10
2022-10-20T11:38:17.476Z,5.00
2022-10-20T11:40:49.328Z,5.27
2022-10-20T11:43:51.109Z,5.63
2022-10-20T11:46:38.006Z,5.60
2022-10-20T11:49:05.046Z,6.27
2022-10-20T11:51:31.750Z,4.97
2022-10-20T11:54:04.916Z,5.20
2022-10-20T11:56:47.396Z,5.27
2022-10-20T11:59:39.036Z,5.53
2022-10-20T12:02:14.975Z,5.87
2022-10-20T12:05:08.986Z,5.50
2022-10-20T12:08:10.967Z,5.50
2022-10-20T12:11:11.438Z,5.57
2022-10-20T12:13:47.003Z,4.73
2022-10-20T12:16:54.146Z,5.77
2022-10-20T12:19:34.926Z,5.87
2022-10-20T12:22:06.276Z,4.73
2022-10-20T12:24:44.589Z,5.33
2022-10-20T12:27:11.258Z,4.90
2022-10-20T12:29:37.916Z,5.13
2022-10-20T12:32:25.968Z,5.20
2022-10-20T12:35:00.407Z,5.63
2022-10-20T12:37:30.783Z,6.17
2022-10-20T12:40:06.606Z,6.03
2022-10-20T12:42:34.676Z,5.63
2022-10-20T12:45:07.216Z,5.20
2022-10-20T12:47:36.422Z,6.30
2022-10-20T12:50:03.806Z,5.73
2022-10-20T12:52:35.785Z,5.00
2022-10-20T12:55:09.327Z,4.60
2022-10-20T12:57:41.823Z,4.93
2022-10-20T13:00:29.041Z,4.97
2022-10-20T13:02:57.495Z,5.43
2022-10-20T13:05:46.856Z,5.10
2022-10-20T13:08:19.467Z,4.63
2022-10-20T13:10:46.771Z,5.07
2022-10-20T13:13:13.437Z,4.50
2022-10-20T13:15:42.723Z,5.53
2022-10-20T13:18:12.771Z,4.80
2022-10-20T13:21:02.627Z,4.73
2022-10-20T13:23:40.716Z,4.30
2022-10-20T13:26:46.037Z,5.10
2022-10-20T13:29:28.987Z,4.90
2022-10-20T13:32:27.940Z,4.43
2022-10-20T13:35:07.764Z,4.80
2022-10-20T13:38:25.906Z,5.20
2022-10-20T13:41:14.151Z,6.83
2022-10-20T13:44:12.103Z,6.57
2022-10-20T13:46:42.081Z,5.30
2022-10-20T13:49:40.647Z,5.50
2022-10-20T13:52:12.202Z,5.63
2022-10-20T13:54:44.748Z,6.10
2022-10-20T13:57:30.356Z,6.70
2022-10-20T14:00:02.800Z,6.97
2022-10-20T14:02:36.403Z,5.57
2022-10-20T14:05:22.946Z,6.27
2022-10-20T14:07:52.388Z,5.90
2022-10-20T14:10:21.898Z,6.00
2022-10-20T14:12:48.757Z,6.10
2022-10-20T14:15:23.516Z,5.07
2022-10-20T14:18:03.061Z,5.37
2022-10-20T14:20:31.847Z,6.93
2022-10-20T14:22:59.876Z,6.50
2022-10-20T14:25:27.766Z,6.20
2022-10-20T14:27:56.217Z,5.33
2022-10-20T14:30:24.155Z,5.93
2022-10-20T14:32:51.497Z,6.33
2022-10-20T14:35:26.205Z,6.00
2022-10-20T14:38:14.796Z,5.73
2022-10-20T14:40:41.737Z,6.43
2022-10-20T14:43:21.036Z,5.77
2022-10-20T14:45:56.216Z,6.07
2022-10-20T14:48:23.187Z,7.70
2022-10-20T14:50:50.256Z,12.83
2022-10-20T14:53:27.404Z,11.40
2022-10-20T14:55:55.305Z,6.00
2022-10-20T14:58:31.256Z,7.47
2022-10-20T15:01:29.090Z,22.70
2022-10-20T15:04:16.234Z,28.83
2022-10-20T15:06:43.986Z,23.53
2022-10-20T15:09:30.042Z,17.90
2022-10-20T15:11:56.866Z,9.43
2022-10-20T15:14:23.780Z,7.50
2022-10-20T15:16:50.758Z,6.77
2022-10-20T15:19:23.626Z,6.90
2022-10-20T15:21:57.937Z,6.07
2022-10-20T15:24:24.684Z,7.27
2022-10-20T15:26:51.534Z,6.70
2022-10-20T15:29:18.637Z,6.03
2022-10-20T15:31:45.297Z,5.70
2022-10-20T15:34:12.487Z,6.43
2022-10-20T15:36:42.080Z,8.30
2022-10-20T15:39:09.491Z,7.47
2022-10-20T15:41:36.820Z,5.77
2022-10-20T15:44:05.566Z,5.43
2022-10-20T15:46:32.196Z,8.20
2022-10-20T15:48:58.947Z,7.73
2022-10-20T15:51:30.520Z,6.30
2022-10-20T15:53:57.808Z,7.80
2022-10-20T15:56:24.847Z,5.67
2022-10-20T15:58:51.789Z,6.67
2022-10-20T16:01:20.786Z,6.33
2022-10-20T16:03:48.296Z,7.20
2022-10-20T16:06:17.036Z,5.90
2022-10-20T16:08:45.665Z,6.63
2022-10-20T16:11:13.415Z,6.30
2022-10-20T16:13:40.362Z,5.77
2022-10-20T16:16:08.896Z,6.03
2022-10-20T16:18:35.607Z,6.57
2022-10-20T16:21:04.454Z,6.73
2022-10-20T16:23:31.196Z,6.50
2022-10-20T16:25:57.917Z,6.70
2022-10-20T16:28:24.600Z,9.37
2022-10-20T16:30:51.288Z,7.00
2022-10-20T16:33:18.006Z,5.70
2022-10-20T16:35:44.747Z,7.80
2022-10-20T16:38:11.568Z,7.73
2022-10-20T16:40:38.319Z,6.47
2022-10-20T16:43:05.125Z,7.33
2022-10-20T16:45:31.864Z,7.00
2022-10-20T16:47:58.525Z,7.07
2022-10-20T16:50:25.225Z,7.90
2022-10-20T16:52:51.876Z,7.00
2022-10-20T16:55:18.613Z,5.80
2022-10-20T16:57:45.377Z,5.63
2022-10-20T17:00:12.800Z,5.97
2022-10-20T17:02:42.987Z,5.90
2022-10-20T17:05:09.918Z,7.93
2022-10-20T17:07:36.969Z,6.23
2022-10-20T17:10:04.046Z,6.73
2022-10-20T17:12:30.768Z,5.70
2022-10-20T17:14:57.559Z,7.37
2022-10-20T17:17:24.256Z,7.40
2022-10-20T17:19:50.957Z,6.20
2022-10-20T17:22:17.737Z,8.03
2022-10-20T17:24:44.406Z,7.60
2022-10-20T17:27:11.116Z,6.90
2022-10-20T17:29:37.827Z,6.00
2022-10-20T17:32:04.796Z,5.93
2022-10-20T17:34:31.557Z,7.10
2022-10-20T17:36:58.334Z,6.60
2022-10-20T17:39:25.066Z,7.30
2022-10-20T17:41:51.894Z,6.63
2022-10-20T17:44:18.557Z,6.13
2022-10-20T17:46:45.375Z,7.80
2022-10-20T17:49:12.046Z,6.30
2022-10-20T17:51:38.996Z,6.00
2022-10-20T17:54:05.730Z,7.10
2022-10-20T17:56:37.226Z,8.90
2022-10-20T17:59:05.717Z,24.60
2022-10-20T18:01:35.060Z,19.17
2022-10-20T18:04:10.690Z,9.80
2022-10-20T18:06:37.766Z,9.33
2022-10-20T18:09:12.699Z,9.40
2022-10-20T18:11:41.734Z,6.80
2022-10-20T18:14:08.474Z,11.73
2022-10-20T18:16:36.980Z,6.93
2022-10-20T18:19:04.940Z,6.70
2022-10-20T18:21:32.311Z,7.10
2022-10-20T18:24:04.345Z,6.13
2022-10-20T18:26:33.087Z,6.80
2022-10-20T18:29:01.952Z,6.13
2022-10-20T18:31:31.025Z,5.93
2022-10-20T18:34:04.361Z,7.00
2022-10-20T18:36:33.088Z,5.43
2022-10-20T18:39:00.211Z,6.40
2022-10-20T18:41:31.652Z,5.83
2022-10-20T18:44:00.443Z,6.77
2022-10-20T18:46:28.768Z,6.23
2022-10-20T18:48:56.027Z,6.73
2022-10-20T18:51:23.203Z,5.60
2022-10-20T18:53:55.336Z,5.40
2022-10-20T18:56:23.656Z,5.90
2022-10-20T18:59:01.919Z,5.60
2022-10-20T19:01:31.401Z,7.37
2022-10-20T19:03:59.406Z,5.83
2022-10-20T19:06:34.576Z,6.60
2022-10-20T19:09:04.640Z,5.97
2022-10-20T19:11:33.295Z,5.80
2022-10-20T19:14:00.665Z,6.30
2022-10-20T19:16:29.857Z,6.97
2022-10-20T19:18:57.529Z,6.63
2022-10-20T19:21:25.563Z,6.43
2022-10-20T19:24:03.883Z,6.93
2022-10-20T19:26:33.057Z,6.77
2022-10-20T19:29:03.857Z,6.20
2022-10-20T19:31:37.650Z,6.20
2022-10-20T19:34:08.697Z,6.00
2022-10-20T19:36:36.096Z,5.83
2022-10-20T19:39:05.016Z,6.53
2022-10-20T19:41:31.777Z,5.33
2022-10-20T19:43:58.656Z,6.53
2022-10-20T19:46:25.281Z,6.27
2022-10-20T19:48:52.384Z,4.87
2022-10-20T19:51:20.646Z,6.43
2022-10-20T19:53:48.238Z,6.00
2022-10-20T19:56:15.333Z,5.53
2022-10-20T19:58:45.721Z,6.17
2022-10-20T20:01:13.801Z,5.60
2022-10-20T20:03:40.665Z,5.67
2022-10-20T20:06:11.197Z,6.10
2022-10-20T20:08:38.186Z,6.40
2022-10-20T20:11:06.002Z,6.10
2022-10-20T20:13:33.049Z,6.00
2022-10-20T20:16:07.526Z,7.60
2022-10-20T20:18:35.425Z,5.60
2022-10-20T20:21:04.422Z,5.10
2022-10-20T20:23:41.114Z,6.60
2022-10-20T20:26:18.722Z,5.80
2022-10-20T20:28:45.262Z,6.20
2022-10-20T20:31:12.517Z,5.13
2022-10-20T20:33:39.279Z,5.50
2022-10-20T20:36:08.535Z,5.53
2022-10-20T20:38:37.445Z,5.57
2022-10-20T20:41:06.956Z,6.27
2022-10-20T20:43:35.049Z,5.70
2022-10-20T20:46:06.324Z,5.50
2022-10-20T20:48:33.549Z,5.20
2022-10-20T20:51:00.427Z,5.87
2022-10-20T20:53:27.146Z,5.47
2022-10-20T20:55:58.666Z,6.67
2022-10-20T20:58:26.266Z,5.70
2022-10-20T21:01:01.003Z,5.37
2022-10-20T21:03:27.733Z,5.67
2022-10-20T21:05:54.281Z,5.40
2022-10-20T21:08:20.909Z,6.87
2022-10-20T21:10:47.458Z,5.87
2022-10-20T21:13:14.009Z,6.67
2022-10-20T21:15:40.642Z,6.67
2022-10-20T21:18:07.234Z,5.43
2022-10-20T21:20:33.820Z,5.87
2022-10-20T21:23:00.434Z,6.13
2022-10-20T21:25:27.034Z,4.70
2022-10-20T21:27:53.573Z,6.50
2022-10-20T21:30:20.311Z,5.83
2022-10-20T21:32:46.874Z,5.40
2022-10-20T21:35:13.467Z,6.20
2022-10-20T21:37:40.078Z,6.67
2022-10-20T21:40:07.208Z,6.10
2022-10-20T21:42:33.846Z,5.40
2022-10-20T21:45:00.411Z,5.70
2022-10-20T21:47:27.014Z,5.90
2022-10-20T21:49:53.594Z,5.80
2022-10-20T21:52:20.151Z,7.53
2022-10-20T21:54:46.738Z,6.20
2022-10-20T21:57:14.464Z,5.60
2022-10-20T21:59:41.121Z,5.87
2022-10-20T22:02:13.621Z,5.70
2022-10-20T22:04:40.210Z,6.17
2022-10-20T22:07:06.897Z,5.90
2022-10-20T22:09:33.494Z,5.93
2022-10-20T22:12:00.123Z,5.57
2022-10-20T22:14:27.427Z,5.97
2022-10-20T22:16:55.618Z,6.30
2022-10-20T22:19:23.685Z,5.60
2022-10-20T22:21:51.643Z,5.30
2022-10-20T22:24:18.929Z,5.40
2022-10-20T22:26:45.924Z,6.27
2022-10-20T22:29:12.945Z,5.97
2022-10-20T22:31:40.589Z,6.10
2022-10-20T22:34:07.643Z,6.10
2022-10-20T22:36:34.651Z,5.90
2022-10-20T22:39:01.420Z,5.67
2022-10-20T22:41:28.035Z,6.77
2022-10-20T22:43:54.570Z,6.30
2022-10-20T22:46:21.240Z,6.30
2022-10-20T22:48:47.896Z,5.93
2022-10-20T22:51:15.369Z,5.83
2022-10-20T22:53:42.674Z,5.00
2022-10-20T22:56:11.781Z,7.20
2022-10-20T22:58:38.930Z,6.30
2022-10-20T23:01:10.265Z,7.00
2022-10-20T23:03:37.460Z,6.70
2022-10-20T23:06:14.498Z,6.53
2022-10-20T23:08:43.352Z,5.40
2022-10-20T23:11:10.456Z,6.13
2022-10-20T23:13:37.187Z,6.47
2022-10-20T23:16:04.134Z,6.37
2022-10-20T23:18:30.826Z,7.17
2022-10-20T23:20:58.299Z,6.70
2022-10-20T23:23:25.608Z,6.23
2022-10-20T23:25:52.354Z,6.87
2022-10-20T23:28:19.697Z,6.30
2022-10-20T23:30:46.477Z,5.40
2022-10-20T23:33:13.576Z,6.10
2022-10-20T23:35:40.667Z,5.70
2022-10-20T23:38:09.681Z,4.70
2022-10-20T23:40:36.867Z,5.43
2022-10-20T23:43:03.529Z,5.60
2022-10-20T23:45:32.855Z,5.90
2022-10-20T23:48:02.174Z,5.47
2022-10-20T23:50:28.866Z,5.80
2022-10-20T23:52:55.577Z,6.23
2022-10-20T23:55:22.285Z,7.50
2022-10-20T23:57:50.350Z,6.03
